Time;durP1;ratioP1;P1;durP2;ratioP2;P2;SDS_P1;SDS_P2;PMS_P1;PMS_P2;Temp;Humidity;BMP_temperature;BMP_pressure;BME280_temperature;BME280_humidity;BME280_pressure;Samples;Min_cycle;Max_cycle;Signal;HPM_P1;HPM_P2
2020/12/04 00:01:24;;;;;;;24.10;19.73;;;;;;;;;;3246801;40;20321;-85
2020/12/04 00:03:40;;;;;;;24.53;19.60;;;;;;;;;;3257265;35;20790;-78
2020/12/04 00:05:57;;;;;;;93.03;71.70;;;;;;;;;;3265876;40;20384;-78
2020/12/04 00:08:12;;;;;;;27.03;20.83;;;6.70;70.70;;;;;;3259493;40;20366;-76
2020/12/04 00:10:29;;;;;;;27.07;20.27;;;;;;;;;;3257214;32;20849;-75
2020/12/04 00:12:45;;;;;;;27.33;20.67;;;7.40;70.50;;;;;;3257360;40;20441;-75
2020/12/04 00:15:01;;;;;;;26.33;19.83;;;;;;;;;;3246847;40;20391;-76
2020/12/04 00:17:17;;;;;;;27.00;20.30;;;7.50;73.60;;;;;;3257382;40;20367;-74
2020/12/04 00:19:35;;;;;;;25.23;19.67;;;8.20;74.10;;;;;;3258380;32;20375;-75
2020/12/04 00:21:51;;;;;;;26.63;20.07;;;7.40;70.30;;;;;;3248049;40;20356;-75
2020/12/04 00:24:07;;;;;;;25.53;19.27;;;;;;;;;;3258678;32;20366;-74
2020/12/04 00:26:23;;;;;;;24.40;19.50;;;6.50;70.10;;;;;;3264516;32;20312;-81
2020/12/04 00:28:40;;;;;;;22.63;19.00;;;;;;;;;;3264081;40;20379;-81
2020/12/04 00:30:57;;;;;;;25.13;20.60;;;7.50;73.40;;;;;;3272054;40;20304;-85
2020/12/04 00:33:23;;;;;;;25.30;20.20;;;;;;;;;;3308183;32;20325;31
2020/12/04 00:35:39;;;;;;;26.50;19.47;;;;;;;;;;3269134;33;20223;-84
2020/12/04 00:37:56;;;;;;;24.17;19.47;;;7.50;74.50;;;;;;3239290;33;20448;-81
2020/12/04 00:40:13;;;;;;;23.53;19.00;;;;;;;;;;3249378;33;20427;-82
2020/12/04 00:42:30;;;;;;;25.80;19.83;;;;;;;;;;3245346;40;20381;-83
2020/12/04 00:44:47;;;;;;;23.87;20.00;;;6.30;70.50;;;;;;3245735;40;20380;-83
2020/12/04 00:47:03;;;;;;;25.57;20.17;;;6.80;70.80;;;;;;3245501;40;20328;-84
2020/12/04 00:49:20;;;;;;;23.93;19.93;;;5.90;73.90;;;;;;3246438;40;20310;-85
2020/12/04 00:51:38;;;;;;;24.20;19.57;;;;;;;;;;3246071;40;20380;-83
2020/12/04 00:53:55;;;;;;;24.97;18.73;;;6.00;74.50;;;;;;3245761;40;21001;-84
2020/12/04 00:56:16;;;;;;;23.67;19.03;;;;;;;;;;3238059;40;20349;-86
2020/12/04 00:58:37;;;;;;;26.57;20.33;;;;;;;;;;3554741;34;20350;31
2020/12/04 01:00:56;;;;;;;25.97;20.23;;;;;;;;;;3236316;33;20379;-83
2020/12/04 01:03:18;;;;;;;24.30;19.80;;;;;;;;;;3327098;33;20399;31
2020/12/04 01:05:41;;;;;;;23.03;18.47;;;6.60;70.80;;;;;;3263289;33;20247;31
2020/12/04 01:07:58;;;;;;;25.03;19.67;;;;;;;;;;3268035;33;20495;-82
2020/12/04 01:10:14;;;;;;;24.40;19.90;;;6.90;75.80;;;;;;3227593;41;20353;-81
2020/12/04 01:12:35;;;;;;;24.70;20.20;;;;;;;;;;3219578;40;20377;-83
2020/12/04 01:14:52;;;;;;;22.80;18.93;;;7.10;75.90;;;;;;3226655;40;21150;-83
2020/12/04 01:17:10;;;;;;;24.83;19.27;;;;;;;;;;3226959;40;20357;-83
2020/12/04 01:19:26;;;;;;;24.87;20.00;;;6.00;71.00;;;;;;3219387;40;20350;-84
2020/12/04 01:21:43;;;;;;;23.80;19.17;;;;;;;;;;3225614;40;20405;-82
2020/12/04 01:24:21;;;;;;;21.77;19.00;;;6.40;70.80;;;;;;3407533;35;20328;31
2020/12/04 01:26:39;;;;;;;24.63;19.20;;;6.60;71.50;;;;;;3261312;33;20642;-82
2020/12/04 01:29:17;;;;;;;25.60;19.00;;;5.80;70.40;;;;;;3689289;35;20375;31
2020/12/04 01:31:38;;;;;;;24.70;19.25;;;;;;;;;;3347675;33;20347;31
2020/12/04 01:34:00;;;;;;;26.07;19.07;;;;;;;;;;3450477;27;20438;31
2020/12/04 01:36:37;;;;;;;23.03;18.30;;;5.80;70.00;;;;;;3607898;27;21650;31
2020/12/04 01:38:53;;;;;;;22.93;19.20;;;;;;;;;;3242150;33;20370;-83
2020/12/04 01:41:11;;;;;;;24.77;19.57;;;;;;;;;;3228275;40;21070;-83
2020/12/04 01:43:32;;;;;;;24.37;19.67;;;7.00;70.90;;;;;;3475362;33;20366;31
2020/12/04 01:45:48;;;;;;;23.70;19.47;;;6.90;75.30;;;;;;3279071;33;20361;-82
2020/12/04 01:48:30;;;;;;;24.33;20.10;;;7.20;71.00;;;;;;3435472;33;20344;31
2020/12/04 01:50:47;;;;;;;24.17;20.00;;;;;;;;;;3248800;33;20296;-83
2020/12/04 01:53:31;;;;;;;22.97;18.90;;;7.00;71.00;;;;;;3617308;27;20371;31
2020/12/04 01:56:10;;;;;;;22.43;18.37;;;5.50;70.20;;;;;;3722654;33;21352;31
2020/12/04 01:58:53;;;;;;;24.77;18.93;;;7.10;71.20;;;;;;3658858;33;21261;31
2020/12/04 02:01:23;;;;;;;25.10;19.60;;;7.40;71.40;;;;;;3676642;33;20474;31
2020/12/04 02:03:40;;;;;;;27.07;19.30;;;;;;;;;;3277826;32;20357;-83
2020/12/04 02:06:07;;;;;;;22.70;18.53;;;7.00;71.50;;;;;;3432979;34;20378;31
2020/12/04 02:08:27;;;;;;;24.03;19.10;;;;;;;;;;3260212;33;20947;-82
2020/12/04 02:10:50;;;;;;;24.10;19.17;;;5.80;74.50;;;;;;3231649;33;20393;-83
2020/12/04 02:13:34;;;;;;;23.92;18.65;;;7.40;70.90;;;;;;3613701;27;20370;31
2020/12/04 02:15:51;;;;;;;23.43;18.83;;;;;;;;;;3259196;33;20445;-83
2020/12/04 02:18:07;;;;;;;24.37;19.50;;;;;;;;;;3236012;33;20455;-81
2020/12/04 02:20:24;;;;;;;24.13;19.47;;;;;;;;;;3235947;40;20451;-83
2020/12/04 02:22:42;;;;;;;23.73;19.37;;;;;;;;;;3235480;40;20379;-82
2020/12/04 02:24:58;;;;;;;21.53;18.27;;;7.30;75.90;;;;;;3238721;33;20310;-84
2020/12/04 02:27:15;;;;;;;23.27;18.97;;;;;;;;;;3263743;33;21009;-85
2020/12/04 02:29:33;;;;;;;22.87;18.87;;;;;;;;;;3228219;40;20340;-85
2020/12/04 02:31:49;;;;;;;23.20;18.93;;;5.00;74.90;;;;;;3236872;40;20310;-83
2020/12/04 02:36:54;;;;;;;24.33;19.30;;;;;;;;;;3661932;27;20421;31
2020/12/04 02:39:34;;;;;;;24.00;18.85;;;6.50;70.50;;;;;;3671292;33;20375;31
2020/12/04 02:42:15;;;;;;;23.57;19.60;;;7.30;71.20;;;;;;3489598;33;20851;31
2020/12/04 02:44:32;;;;;;;23.90;19.73;;;;;;;;;;3262656;33;20445;-84
2020/12/04 02:46:49;;;;;;;24.30;18.83;;;;;;;;;;3239276;33;20329;-82
2020/12/04 02:49:09;;;;;;;25.40;19.90;;;;;;;;;;3487588;35;20359;31
2020/12/04 02:51:25;;;;;;;26.80;19.70;;;6.50;75.60;;;;;;3312207;33;20369;-83
2020/12/04 02:53:42;;;;;;;25.07;19.20;;;;;;;;;;3237628;40;20745;-84
2020/12/04 02:55:59;;;;;;;23.33;18.23;;;;;;;;;;3238809;40;20328;-84
2020/12/04 02:58:16;;;;;;;26.10;19.30;;;;;;;;;;3239236;40;20329;-85
2020/12/04 03:00:33;;;;;;;22.60;18.07;;;;;;;;;;3241535;33;20302;-85
2020/12/04 03:03:10;;;;;;;23.20;18.40;;;6.50;70.90;;;;;;3351909;27;21200;31
2020/12/04 03:05:29;;;;;;;21.90;17.83;;;;;;;;;;3248621;33;20926;-85
2020/12/04 03:07:46;;;;;;;21.27;17.70;;;6.90;75.80;;;;;;3239260;40;20332;-84
2020/12/04 03:10:03;;;;;;;23.43;18.60;;;;;;;;;;3222329;40;20335;-85
2020/12/04 03:12:21;;;;;;;23.43;18.53;;;;;;;;;;3238548;40;20305;-86
2020/12/04 03:14:38;;;;;;;21.07;17.90;;;;;;;;;;3230365;40;20314;-85
2020/12/04 03:16:55;;;;;;;24.53;19.40;;;6.20;75.60;;;;;;3229637;40;20349;-79
2020/12/04 03:19:11;;;;;;;24.53;18.53;;;6.80;71.30;;;;;;3230375;40;20328;-85
2020/12/04 03:21:27;;;;;;;22.53;18.00;;;6.50;75.90;;;;;;3237122;33;20313;-85
2020/12/04 03:23:44;;;;;;;21.47;18.07;;;;;;;;;;3236494;40;21089;-86
2020/12/04 03:26:02;;;;;;;23.20;18.77;;;6.20;70.90;;;;;;3222132;40;20355;-85
2020/12/04 03:28:19;;;;;;;22.43;18.23;;;6.40;71.30;;;;;;3228590;40;20314;-85
2020/12/04 03:30:36;;;;;;;25.63;18.30;;;;;;;;;;3230162;40;20318;-86
2020/12/04 03:33:14;;;;;;;21.33;18.07;;;6.80;71.50;;;;;;3230011;40;20394;-86
2020/12/04 03:35:30;;;;;;;22.77;18.17;;;;;;;;;;3252050;33;20373;-85
2020/12/04 03:37:47;;;;;;;22.63;17.97;;;;;;;;;;3229111;40;20306;-86
2020/12/04 03:40:04;;;;;;;22.87;17.93;;;5.70;75.70;;;;;;3228894;40;20322;-85
2020/12/04 03:42:20;;;;;;;22.87;18.03;;;6.00;75.60;;;;;;3229310;40;20364;-85
2020/12/04 03:44:37;;;;;;;23.17;18.17;;;;;;;;;;3229111;40;20330;-85
2020/12/04 03:46:54;;;;;;;22.73;18.17;;;;;;;;;;3229119;40;20325;-85
2020/12/04 03:49:13;;;;;;;22.57;18.50;;;;;;;;;;3238812;33;20377;-85
2020/12/04 03:51:29;;;;;;;22.63;17.87;;;;;;;;;;3229278;40;20324;-85
2020/12/04 03:53:47;;;;;;;21.57;18.03;;;;;;;;;;3229047;40;20394;-85
2020/12/04 03:56:04;;;;;;;23.17;18.57;;;6.00;75.50;;;;;;3227234;33;20323;-86
2020/12/04 03:58:20;;;;;;;21.97;17.77;;;;;;;;;;3211489;40;20403;-86
2020/12/04 04:00:40;;;;;;;24.53;18.83;;;6.70;75.70;;;;;;3231191;33;20326;-86
2020/12/04 04:03:00;;;;;;;22.80;18.40;;;;;;;;;;3211507;41;20406;-86
2020/12/04 04:05:17;;;;;;;23.57;18.63;;;;;;;;;;3244750;33;20333;-86
2020/12/04 04:07:34;;;;;;;21.50;17.50;;;;;;;;;;3265994;33;20944;-87
2020/12/04 04:09:50;;;;;;;22.47;18.13;;;;;;;;;;3237809;40;20324;-87
2020/12/04 04:12:07;;;;;;;21.67;18.67;;;5.60;75.40;;;;;;3229708;40;20310;-85
2020/12/04 04:14:23;;;;;;;21.33;17.03;;;7.20;76.70;;;;;;3229930;40;20318;-84
2020/12/04 04:16:41;;;;;;;22.20;18.00;;;;;;;;;;3273800;33;20369;-85
2020/12/04 04:18:58;;;;;;;21.93;18.27;;;;;;;;;;3229658;40;20345;-86
2020/12/04 04:21:15;;;;;;;21.77;18.00;;;;;;;;;;3238536;40;20313;-85
2020/12/04 04:23:31;;;;;;;23.47;18.33;;;;;;;;;;3229566;40;20339;-84
2020/12/04 04:25:47;;;;;;;21.53;17.77;;;5.70;71.00;;;;;;3236258;40;21108;-86
2020/12/04 04:28:10;;;;;;;22.27;18.20;;;;;;;;;;3239676;40;20318;-84
2020/12/04 04:30:36;;;;;;;23.53;18.27;;;6.90;71.50;;;;;;3329842;34;20530;31
2020/12/04 04:33:14;;;;;;;24.90;18.10;;;6.50;71.10;;;;;;3252692;33;20983;-86
2020/12/04 04:35:31;;;;;;;24.37;18.67;;;;;;;;;;3269902;33;20345;-85
2020/12/04 04:37:47;;;;;;;24.40;18.00;;;;;;;;;;3258755;33;20318;-86
2020/12/04 04:40:04;;;;;;;22.43;18.10;;;;;;;;;;3262549;33;20964;-84
2020/12/04 04:42:22;;;;;;;22.63;17.83;;;;;;;;;;3246589;40;20392;-84
2020/12/04 04:44:38;;;;;;;21.83;17.07;;;6.40;71.50;;;;;;3238298;40;20309;-83
2020/12/04 04:47:03;;;;;;;29.03;19.00;;;;;;;;;;3218375;40;20350;-84
2020/12/04 04:49:27;;;;;;;21.23;18.00;;;;;;;;;;3228742;33;21270;-85
2020/12/04 04:51:44;;;;;;;21.43;17.63;;;;;;;;;;3211677;33;20346;-85
2020/12/04 04:54:03;;;;;;;25.37;18.03;;;6.00;71.30;;;;;;3218921;40;20379;-86
2020/12/04 04:56:20;;;;;;;22.53;17.23;;;;;;;;;;3230968;33;20357;-85
2020/12/04 04:58:37;;;;;;;21.50;17.93;;;;;;;;;;3210953;40;20355;-85
2020/12/04 05:00:53;;;;;;;22.10;17.73;;;5.60;75.90;;;;;;3238776;33;20319;-83
2020/12/04 05:03:31;;;;;;;19.77;16.63;;;6.30;71.10;;;;;;3306814;33;20367;31
2020/12/04 05:05:51;;;;;;;21.83;17.10;;;7.00;76.20;;;;;;3260286;33;20336;-85
2020/12/04 05:08:10;;;;;;;19.83;17.50;;;5.50;71.30;;;;;;3229351;40;20346;-86
2020/12/04 05:10:27;;;;;;;22.30;18.70;;;;;;;;;;3229246;40;20310;-84
2020/12/04 05:12:44;;;;;;;22.67;18.33;;;;;;;;;;3229175;40;20334;-85
2020/12/04 05:15:20;;;;;;;23.97;18.07;;;5.50;71.50;;;;;;3228909;40;20401;-85
2020/12/04 05:17:37;;;;;;;21.10;17.83;;;;;;;;;;3213338;40;20357;-84
2020/12/04 05:19:54;;;;;;;20.13;17.00;;;;;;;;;;3229230;40;20390;-84
2020/12/04 05:22:13;;;;;;;19.60;16.37;;;6.30;72.20;;;;;;3229109;40;20322;-84
2020/12/04 05:24:32;;;;;;;22.27;17.30;;;;;;;;;;3229305;40;20318;-85
2020/12/04 05:26:48;;;;;;;22.60;17.67;;;;;;;;;;3229098;40;20333;-85
2020/12/04 05:29:06;;;;;;;21.97;16.93;;;6.10;72.20;;;;;;3229059;40;20342;-85
2020/12/04 05:31:28;;;;;;;21.33;17.17;;;;;;;;;;3237319;40;20376;-85
2020/12/04 05:34:19;;;;;;;23.92;18.38;;;7.00;72.50;;;;;;3356470;34;20370;31
2020/12/04 05:36:36;;;;;;;20.97;18.00;;;;;;;;;;3244184;33;20984;-85
2020/12/04 05:38:55;;;;;;;22.73;18.03;;;;;;;;;;3230724;33;20346;-85
2020/12/04 05:41:11;;;;;;;22.50;18.30;;;;;;;;;;3243075;33;20674;-85
2020/12/04 05:43:30;;;;;;;22.63;17.70;;;;;;;;;;3229091;40;20360;-85
2020/12/04 05:45:50;;;;;;;22.00;17.90;;;;;;;;;;3237080;40;20351;-85
2020/12/04 05:48:14;;;;;;;24.37;18.17;;;5.80;77.00;;;;;;3255280;33;20318;-85
2020/12/04 05:50:35;;;;;;;22.83;18.20;;;;;;;;;;3212288;40;21041;-84
2020/12/04 05:52:51;;;;;;;22.60;18.67;;;7.40;78.30;;;;;;3236157;40;20362;-84
2020/12/04 05:55:11;;;;;;;22.03;18.13;;;;;;;;;;3228885;40;20349;-85
2020/12/04 05:57:29;;;;;;;23.00;18.23;;;6.40;78.00;;;;;;3228859;40;20397;-84
2020/12/04 05:59:46;;;;;;;21.33;17.47;;;;;;;;;;3239101;33;20313;-85
2020/12/04 06:02:29;;;;;;;22.03;17.63;;;6.80;73.20;;;;;;3229241;33;20441;-85
2020/12/04 06:04:47;;;;;;;22.20;18.57;;;6.90;78.10;;;;;;3229017;40;20346;-83
2020/12/04 06:07:06;;;;;;;20.37;16.97;;;5.40;77.20;;;;;;3228969;40;20337;-85
2020/12/04 06:09:23;;;;;;;24.57;17.13;;;;;;;;;;3210621;40;20350;-84
2020/12/04 06:11:43;;;;;;;21.23;17.37;;;7.10;78.70;;;;;;3221021;40;20374;-85
2020/12/04 06:14:04;;;;;;;23.13;18.27;;;;;;;;;;3228853;40;21054;-84
2020/12/04 06:16:21;;;;;;;23.70;18.00;;;;;;;;;;3221125;40;20963;-85
2020/12/04 06:18:40;;;;;;;25.13;18.10;;;;;;;;;;3228791;40;20314;-85
2020/12/04 06:20:57;;;;;;;21.70;17.80;;;;;;;;;;3220773;40;20387;-85
2020/12/04 06:23:16;;;;;;;25.30;18.50;;;5.50;73.00;;;;;;3222188;33;20326;-85
2020/12/04 06:25:52;;;;;;;21.40;17.77;;;;;;;;;;3221536;40;21011;-84
2020/12/04 06:28:17;;;;;;;21.70;17.83;;;5.80;73.30;;;;;;3242908;33;20812;-84
2020/12/04 06:30:45;;;;;;;22.73;18.00;;;6.20;73.40;;;;;;3229499;40;20385;-84
2020/12/04 06:33:06;;;;;;;20.30;17.40;;;;;;;;;;3266110;35;20905;31
2020/12/04 06:35:40;;;;;;;21.10;17.47;;;;;;;;;;3262367;33;20314;-85
2020/12/04 06:37:56;;;;;;;22.03;17.77;;;6.40;77.80;;;;;;3275177;33;20313;-86
2020/12/04 06:40:38;;;;;;;24.37;17.97;;;6.40;73.30;;;;;;3271547;33;20927;-85
2020/12/04 06:42:55;;;;;;;23.50;17.60;;;;;;;;;;3220264;40;20340;-84
2020/12/04 06:45:12;;;;;;;22.33;17.67;;;;;;;;;;3271889;33;20301;-85
2020/12/04 06:47:30;;;;;;;22.67;17.73;;;;;;;;;;3239091;40;20357;-85
2020/12/04 06:49:47;;;;;;;24.97;18.00;;;;;;;;;;3239197;40;21052;-85
2020/12/04 06:52:05;;;;;;;22.30;18.37;;;;;;;;;;3239378;40;20332;-86
2020/12/04 06:54:21;;;;;;;23.30;18.20;;;;;;;;;;3239256;40;20329;-84
2020/12/04 06:56:38;;;;;;;23.43;19.23;;;;;;;;;;3241567;33;21007;-85
2020/12/04 06:58:58;;;;;;;24.23;18.67;;;;;;;;;;3239100;40;20528;-84
2020/12/04 07:01:18;;;;;;;22.13;18.20;;;;;;;;;;3244183;40;20893;-80
2020/12/04 07:03:55;;;;;;;25.17;18.67;;;6.50;75.50;;;;;;3233389;40;20380;-76
2020/12/04 07:06:12;;;;;;;23.60;19.50;;;;;;;;;;3233233;40;20675;-77
2020/12/04 07:08:28;;;;;;;22.47;17.90;;;7.90;74.50;;;;;;3232075;40;20459;-77
2020/12/04 07:10:53;;;;;;;22.10;17.57;;;5.90;70.60;;;;;;3233161;40;20348;-77
2020/12/04 07:13:08;;;;;;;24.93;20.13;;;;;;;;;;3232771;40;20384;-77
2020/12/04 07:15:28;;;;;;;23.70;19.83;;;;;;;;;;3231584;40;20371;-77
2020/12/04 07:17:45;;;;;;;23.07;18.73;;;;;;;;;;3230813;40;20388;-77
2020/12/04 07:20:01;;;;;;;24.63;18.07;;;8.00;73.80;;;;;;3233190;33;20341;-76
2020/12/04 07:22:17;;;;;;;22.93;18.33;;;;;;;;;;3231162;40;20860;-79
2020/12/04 07:24:33;;;;;;;24.57;18.93;;;6.40;72.80;;;;;;3234358;33;20825;-79
2020/12/04 07:26:53;;;;;;;21.97;17.87;;;6.10;72.30;;;;;;3234377;40;20384;-77
2020/12/04 07:29:11;;;;;;;21.97;17.57;;;6.00;70.10;;;;;;3236070;40;20420;-77
2020/12/04 07:31:27;;;;;;;23.50;18.17;;;;;;;;;;3232496;40;20364;-78
2020/12/04 07:33:51;;;;;;;24.27;18.90;;;7.40;73.00;;;;;;3235133;40;20387;-77
2020/12/04 07:36:07;;;;;;;21.27;18.07;;;7.50;73.00;;;;;;3235874;40;20374;-76
2020/12/04 07:38:23;;;;;;;23.00;18.80;;;7.60;73.10;;;;;;3230943;33;20377;-77
2020/12/04 07:40:40;;;;;;;23.77;18.30;;;7.70;73.00;;;;;;3242303;40;20387;-80
2020/12/04 07:42:57;;;;;;;27.07;21.43;;;;;;;;;;3246504;40;20356;-77
2020/12/04 07:45:16;;;;;;;24.33;19.17;;;;;;;;;;3239123;33;20400;-80
2020/12/04 07:48:06;;;;;;;89.73;76.40;;;6.30;70.20;;;;;;3238242;40;20396;-82
2020/12/04 07:50:24;;;;;;;26.20;21.23;;;;;;;;;;3243568;33;20411;-78
2020/12/04 07:52:51;;;;;;;22.23;18.37;;;;;;;;;;3586120;32;20477;31
2020/12/04 07:55:09;;;;;;;21.27;17.03;;;;;;;;;;3255372;33;20322;-82
2020/12/04 07:57:31;;;;;;;25.30;18.17;;;8.20;73.00;;;;;;3253789;33;20983;-81
2020/12/04 07:59:48;;;;;;;24.83;18.80;;;6.20;69.50;;;;;;3225137;40;20314;-82
2020/12/04 08:02:05;;;;;;;31.67;19.07;;;;;;;;;;3233216;40;20357;-81
2020/12/04 08:04:23;;;;;;;24.93;17.70;;;6.90;72.20;;;;;;3227220;40;20342;-82
2020/12/04 08:06:40;;;;;;;22.13;17.07;;;;;;;;;;3234906;40;20837;-83
2020/12/04 08:09:07;;;;;;;21.27;17.63;;;;;;;;;;3227463;40;20330;-84
2020/12/04 08:11:26;;;;;;;21.53;16.73;;;6.10;72.00;;;;;;3202147;41;20370;-81
2020/12/04 08:13:45;;;;;;;28.13;17.97;;;;;;;;;;3205202;33;20426;-83
2020/12/04 08:16:07;;;;;;;20.33;16.87;;;7.10;72.60;;;;;;3201447;33;20355;-80
2020/12/04 08:18:23;;;;;;;23.80;16.90;;;;;;;;;;3203250;33;20378;-82
2020/12/04 08:20:40;;;;;;;23.47;17.37;;;;;;;;;;3207134;41;20406;-82
2020/12/04 08:22:58;;;;;;;21.77;17.97;;;;;;;;;;3210184;33;20346;-82
2020/12/04 08:25:14;;;;;;;21.07;17.63;;;7.00;70.20;;;;;;3209428;41;20338;-83
2020/12/04 08:27:32;;;;;;;22.97;17.87;;;;;;;;;;3201336;41;20331;-82
2020/12/04 08:30:05;;;;;;;21.23;17.30;;;7.30;70.20;;;;;;3219113;33;20303;-83
2020/12/04 08:32:23;;;;;;;22.93;18.47;;;;;;;;;;3239796;33;20325;-80
2020/12/04 08:34:41;;;;;;;24.40;17.90;;;8.20;73.00;;;;;;3238566;33;20318;-83
2020/12/04 08:37:02;;;;;;;23.43;17.50;;;;;;;;;;3228672;40;20344;-85
2020/12/04 08:39:20;;;;;;;21.87;17.37;;;;;;;;;;3217530;40;20398;-79
2020/12/04 08:41:39;;;;;;;21.67;16.67;;;;;;;;;;3210183;41;20338;-83
2020/12/04 08:43:57;;;;;;;26.30;17.50;;;;;;;;;;3234151;33;20455;-86
2020/12/04 08:46:17;;;;;;;22.57;16.90;;;;;;;;;;3193527;41;20432;-86
2020/12/04 08:48:38;;;;;;;22.20;17.93;;;;;;;;;;3201295;41;20331;-83
2020/12/04 08:50:56;;;;;;;23.83;16.83;;;;;;;;;;3232263;33;21375;-83
2020/12/04 08:53:13;;;;;;;20.93;16.63;;;6.30;69.70;;;;;;3193258;41;20410;-83
2020/12/04 08:55:32;;;;;;;21.80;18.13;;;;;;;;;;3187734;33;20332;-85
2020/12/04 08:57:51;;;;;;;21.07;17.30;;;8.20;73.10;;;;;;3190078;41;20316;-83
2020/12/04 09:00:10;;;;;;;20.27;16.93;;;;;;;;;;3201040;41;20356;-84
2020/12/04 09:02:29;;;;;;;22.17;17.53;;;;;;;;;;3201071;41;20380;-84
2020/12/04 09:04:46;;;;;;;20.77;16.40;;;;;;;;;;3226194;33;21019;-85
2020/12/04 09:07:02;;;;;;;21.93;17.47;;;;;;;;;;3200980;41;20335;-80
2020/12/04 09:11:15;;;;;;;24.17;18.13;;;;;;;;;;4693673;27;1037192;-83
2020/12/04 09:13:32;;;;;;;20.93;18.13;;;7.80;72.60;;;;;;4685799;28;20676;-86
2020/12/04 09:15:48;;;;;;;20.97;16.87;;;;;;;;;;4687010;28;20431;-88
2020/12/04 09:18:05;;;;;;;23.50;17.43;;;;;;;;;;4705004;28;20480;-87
2020/12/04 09:20:25;;;;;;;24.13;17.63;;;;;;;;;;4704387;28;20427;-89
2020/12/04 09:22:44;;;;;;;22.57;18.37;;;;;;;;;;4704633;28;20468;-86
2020/12/04 09:25:06;;;;;;;19.50;16.80;;;;;;;;;;4686697;28;20467;-85
2020/12/04 09:27:24;;;;;;;21.43;16.20;;;6.80;72.10;;;;;;4706140;28;20454;-86
2020/12/04 09:29:40;;;;;;;20.13;16.60;;;;;;;;;;4686720;28;21035;-85
2020/12/04 09:31:57;;;;;;;21.17;16.83;;;;;;;;;;4705896;28;20450;-84
2020/12/04 09:34:14;;;;;;;21.13;17.20;;;;;;;;;;4683784;28;20440;-84
2020/12/04 09:36:55;;;;;;;24.40;18.07;;;;;;;;;;4685650;28;20966;-87
2020/12/04 09:39:12;;;;;;;20.03;16.93;;;;;;;;;;4666001;28;20443;-87
2020/12/04 09:41:28;;;;;;;62.70;51.60;;;;;;;;;;4668105;28;20444;-83
2020/12/04 09:43:45;;;;;;;52.80;43.73;;;;;;;;;;4682202;28;20440;-77
2020/12/04 09:46:01;;;;;;;22.07;17.23;;;;;;;;;;4682948;28;20877;-75
2020/12/04 09:48:17;;;;;;;22.30;17.00;;;7.30;72.70;;;;;;4663692;28;20466;-75
2020/12/04 09:50:32;;;;;;;22.27;16.00;;;7.30;73.10;;;;;;4683851;28;20565;-74
2020/12/04 09:52:50;;;;;;;23.63;16.30;;;8.30;71.50;;;;;;4682368;28;20439;-75
2020/12/04 09:55:07;;;;;;;19.30;16.47;;;7.70;73.30;;;;;;4683721;28;20452;-75
2020/12/04 09:57:23;;;;;;;22.40;16.90;;;;;;;;;;4664393;28;20467;-76
2020/12/04 09:59:40;;;;;;;19.37;15.80;;;;;;;;;;4683426;28;20482;-74
2020/12/04 10:01:56;;;;;;;21.40;16.03;;;8.00;71.60;;;;;;4682717;28;20447;-74
2020/12/04 10:04:12;;;;;;;17.77;15.20;;;8.00;73.70;;;;;;4683064;28;20830;-75
2020/12/04 10:06:27;;;;;;;18.40;14.90;;;8.00;71.10;;;;;;4683284;28;21007;-74
2020/12/04 10:08:43;;;;;;;20.57;16.13;;;;;;;;;;4680563;28;20439;-75
2020/12/04 10:10:59;;;;;;;27.07;23.47;;;;;;;;;;4683572;28;20476;-83
2020/12/04 10:13:16;;;;;;;23.87;19.20;;;;;;;;;;4685733;28;20508;-77
2020/12/04 10:15:32;;;;;;;19.43;15.87;;;;;;;;;;4684418;28;20488;-80
2020/12/04 10:17:48;;;;;;;20.33;15.47;;;;;;;;;;4682946;28;20431;-81
2020/12/04 10:20:04;;;;;;;20.57;15.37;;;;;;;;;;4683970;28;20501;-76
2020/12/04 10:22:21;;;;;;;20.00;16.40;;;;;;;;;;4667981;28;20481;-79
2020/12/04 10:24:36;;;;;;;19.57;15.83;;;7.40;72.70;;;;;;4671188;28;20834;-80
2020/12/04 10:26:52;;;;;;;32.07;16.87;;;;;;;;;;4669522;28;20436;-79
2020/12/04 10:29:09;;;;;;;21.47;15.87;;;;;;;;;;4671070;28;20452;-82
2020/12/04 10:31:26;;;;;;;20.50;16.30;;;;;;;;;;4670684;28;20436;-81
2020/12/04 10:33:42;;;;;;;23.90;15.63;;;6.80;71.50;;;;;;4673954;28;20942;-82
2020/12/04 10:35:58;;;;;;;19.73;15.07;;;;;;;;;;4669844;28;20483;-79
2020/12/04 10:38:14;;;;;;;20.20;15.53;;;7.40;71.70;;;;;;4670965;28;20460;-79
2020/12/04 10:40:30;;;;;;;22.17;15.83;;;;;;;;;;4670528;28;20451;-80
2020/12/04 10:42:46;;;;;;;22.73;15.63;;;;;;;;;;4673808;28;20441;-76
2020/12/04 10:45:02;;;;;;;20.30;14.87;;;7.60;71.70;;;;;;4668801;28;20950;-78
2020/12/04 10:47:22;;;;;;;25.50;15.90;;;;;;;;;;4670180;28;20451;-78
2020/12/04 10:49:38;;;;;;;27.37;15.67;;;8.30;72.10;;;;;;4669220;28;20778;-75
2020/12/04 10:51:57;;;;;;;60.63;17.30;;;8.10;69.80;;;;;;4670151;28;20432;-77
2020/12/04 10:54:13;;;;;;;18.43;15.60;;;8.80;72.50;;;;;;4669292;28;20429;-76
2020/12/04 10:56:29;;;;;;;26.77;15.07;;;7.30;71.60;;;;;;4669848;28;20566;-76
2020/12/04 10:58:45;;;;;;;35.80;16.43;;;9.60;72.80;;;;;;4669489;28;21003;-77
2020/12/04 11:01:01;;;;;;;44.73;16.07;;;9.70;73.00;;;;;;4669561;28;20600;-79
2020/12/04 11:03:26;;;;;;;19.93;14.63;;;;;;;;;;4669712;28;20460;-76
2020/12/04 11:05:43;;;;;;;17.10;14.63;;;;;;;;;;4668719;28;20772;-77
2020/12/04 11:08:01;;;;;;;17.97;14.83;;;;;;;;;;4670461;28;20429;-79
2020/12/04 11:10:17;;;;;;;34.43;15.27;;;;;;;;;;4668109;28;20476;-77
2020/12/04 11:12:33;;;;;;;18.80;14.77;;;6.70;71.20;;;;;;4669574;28;20439;-76
2020/12/04 11:14:48;;;;;;;19.97;15.60;;;9.70;72.80;;;;;;4668205;28;20535;-77
2020/12/04 11:17:04;;;;;;;38.00;16.80;;;8.00;71.90;;;;;;4670427;28;20440;-83
2020/12/04 11:19:22;;;;;;;26.83;17.33;;;;;;;;;;4649799;28;20453;-76
2020/12/04 11:21:38;;;;;;;30.93;16.50;;;9.10;72.70;;;;;;4651962;28;20430;-79
2020/12/04 11:23:54;;;;;;;20.20;16.50;;;;;;;;;;4668038;28;20459;-77
2020/12/04 11:26:10;;;;;;;25.70;15.97;;;8.40;71.60;;;;;;4669256;28;20448;-76
2020/12/04 11:28:26;;;;;;;48.93;17.57;;;;;;;;;;4668139;28;20468;-77
2020/12/04 11:30:43;;;;;;;28.63;17.27;;;;;;;;;;4669133;28;20575;-77
2020/12/04 11:32:58;;;;;;;20.03;16.07;;;7.60;71.40;;;;;;4666713;28;20487;-77
2020/12/04 11:35:17;;;;;;;20.93;16.97;;;7.40;69.00;;;;;;4669394;28;20752;-76
2020/12/04 11:37:33;;;;;;;18.87;15.50;;;;;;;;;;4667740;28;20428;-77
2020/12/04 11:39:49;;;;;;;23.50;15.60;;;9.80;72.60;;;;;;4651130;28;20437;-77
2020/12/04 11:42:05;;;;;;;27.27;16.67;;;;;;;;;;4668211;28;20456;-76
2020/12/04 11:44:23;;;;;;;20.87;15.10;;;;;;;;;;4668505;28;20444;-76
2020/12/04 11:46:39;;;;;;;18.90;15.17;;;;;;;;;;4667556;28;20500;-76
2020/12/04 11:48:55;;;;;;;18.27;15.20;;;9.10;71.00;;;;;;4668500;28;20440;-76
2020/12/04 11:51:12;;;;;;;24.50;15.87;;;;;;;;;;4668312;28;20480;-81
2020/12/04 11:53:28;;;;;;;21.40;15.17;;;10.30;71.70;;;;;;4650114;28;21152;-77
2020/12/04 11:55:44;;;;;;;29.77;16.67;;;;;;;;;;4668734;28;20432;-77
2020/12/04 11:58:03;;;;;;;28.50;20.13;;;;;;;;;;4669796;28;20433;-82
2020/12/04 12:00:20;;;;;;;31.23;16.27;;;;;;;;;;4673132;28;20531;-79
2020/12/04 12:02:36;;;;;;;41.20;17.53;;;;;;;;;;4667850;28;20432;-79
2020/12/04 12:04:52;;;;;;;60.40;19.80;;;;;;;;;;4668830;28;20520;-78
2020/12/04 12:07:10;;;;;;;22.77;15.13;;;;;;;;;;4666975;28;20448;-81
2020/12/04 12:09:26;;;;;;;23.40;16.57;;;;;;;;;;4668749;28;21020;-81
2020/12/04 12:11:42;;;;;;;28.07;16.87;;;;;;;;;;4667259;28;20479;-78
2020/12/04 12:13:58;;;;;;;38.17;18.40;;;9.50;71.30;;;;;;4669203;28;20440;-83
2020/12/04 12:16:16;;;;;;;29.87;17.43;;;;;;;;;;4649227;28;20935;-79
2020/12/04 12:18:33;;;;;;;39.97;17.40;;;9.40;71.70;;;;;;4668898;28;20504;-78
2020/12/04 12:20:48;;;;;;;25.37;16.77;;;8.90;71.30;;;;;;4649759;28;20447;-78
2020/12/04 12:23:05;;;;;;;28.67;17.73;;;8.30;71.00;;;;;;4669810;28;20440;-84
2020/12/04 12:25:22;;;;;;;22.67;16.60;;;;;;;;;;4668848;28;20436;-86
2020/12/04 12:27:52;;;;;;;22.00;17.50;;;;;;;;;;4637892;28;20524;-84
2020/12/04 12:30:09;;;;;;;20.77;16.50;;;;;;;;;;4650994;28;20607;-82
2020/12/04 12:32:30;;;;;;;34.93;18.03;;;9.30;71.50;;;;;;4667538;28;20505;-80
2020/12/04 12:35:02;;;;;;;27.97;17.40;;;;;;;;;;4667557;28;20973;-79
2020/12/04 12:37:19;;;;;;;39.33;18.70;;;;;;;;;;4649465;28;20464;-81
2020/12/04 12:39:37;;;;;;;20.57;16.77;;;;;;;;;;4650096;28;20446;-81
2020/12/04 12:41:53;;;;;;;20.27;16.73;;;;;;;;;;4631806;28;20438;-81
2020/12/04 12:44:09;;;;;;;21.47;16.33;;;;;;;;;;4662735;28;21046;-79
2020/12/04 12:46:26;;;;;;;273.07;221.87;;;;;;;;;;4632644;28;21006;-84
2020/12/04 12:48:42;;;;;;;25.50;19.97;;;;;;;;;;4651389;28;20469;-86
2020/12/04 12:50:58;;;;;;;21.83;17.73;;;;;;;;;;4632908;28;20478;-87
2020/12/04 12:53:15;;;;;;;21.00;17.53;;;;;;;;;;4652088;28;20819;-86
2020/12/04 12:55:32;;;;;;;22.23;16.40;;;;;;;;;;4650454;28;20437;-85